LNG Aquarius — V7BW6 — position and weather

sailwx.info

Track history (hours):
 
Tides and Currents Weather Stations Pressure Air Temp Water Temp Dewpoint Dewpoint Depression Visibility Wind Speed Wind Dir Waves Ship Positions

LNG Aquarius

Last reported at 2017-Apr-25 09:05 UTC. Time now 2017-Apr-26 05:57 UTC.
Position N 40°59' E 028°60'.

Type: Tanker. MMSI: 538001385.

Date/timePositionNaut miles runAvg speedWind from/ knotsBaromVisibWave heightAir tempDewpointWater temp
2017-Apr-25 09:05N 40°59' E 028°60'110.4
2017-Apr-25 09:00N 40°59' E 028°60'6 8.0
2017-Apr-25 08:14N 40°53' E 028°55'2 7.7
2017-Apr-25 08:00N 40°52' E 028°53'3 3.7
2017-Apr-25 07:09N 40°49' E 028°53'0 0.4
2017-Apr-25 07:00N 40°49' E 028°53'0 0.5
2017-Apr-25 06:23N 40°49' E 028°53'0 0.5
2017-Apr-25 05:56N 40°49' E 028°53'1 0.4
2017-Apr-25 02:06N 40°48' E 028°54'0 0.3
2017-Apr-25 02:00N 40°48' E 028°54'0 0.6
2017-Apr-25 01:30N 40°47' E 028°55'0 0.6
2017-Apr-25 00:57N 40°47' E 028°55'1 0.3
2017-Apr-24 23:18N 40°47' E 028°55'0 0.8
2017-Apr-24 23:00N 40°47' E 028°55'0 0.7
2017-Apr-24 22:30N 40°47' E 028°55'0 0.6
2017-Apr-24 21:59N 40°47' E 028°56'0 0.2
2017-Apr-24 21:26N 40°47' E 028°56'1 2.9
2017-Apr-24 21:00N 40°48' E 028°55'  
2017-Apr-20 00:03N 38°00' E 024°42'313.0
2017-Apr-19 23:51N 37°59' E 024°40'412.9
2017-Apr-19 23:31N 37°55' E 024°37'612.9
2017-Apr-19 23:01N 37°49' E 024°35'612.7
2017-Apr-19 22:30N 37°42' E 024°34'612.3
2017-Apr-19 22:00N 37°37' E 024°30'47411.6
2017-Apr-18 05:14N 36°26' E 014°43'612.7
2017-Apr-18 04:47N 36°27' E 014°36'412.6
2017-Apr-18 04:29N 36°28' E 014°32'612.4
2017-Apr-18 04:00N 36°30' E 014°24'712.3
2017-Apr-18 03:26N 36°32' E 014°16'512.5
2017-Apr-18 03:01N 36°34' E 014°10'612.5
2017-Apr-18 02:30N 36°35' E 014°02'612.5
2017-Apr-18 02:01N 36°37' E 013°55'  
2017-Apr-15 18:54N 36°46' E 000°45'713.5
2017-Apr-15 18:25N 36°44' E 000°37'613.4
2017-Apr-15 18:00N 36°43' E 000°30'713.2
2017-Apr-15 17:26N 36°41' E 000°21'1213.2
2017-Apr-15 16:34N 36°39' E 000°07'213.4
2017-Apr-15 16:23N 36°38' E 000°04'513.5
2017-Apr-15 15:58N 36°36' W 000°02'1613.7
2017-Apr-15 14:51N 36°32' W 000°21'513.8
2017-Apr-15 14:30N 36°32' W 000°27'  
Track history (hours):
 
Tides and Currents Weather Stations Pressure Air Temp Water Temp Dewpoint Dewpoint Depression Visibility Wind Speed Wind Dir Waves Ship Positions

LNG Aquarius

Last reported at 2017-Apr-25 09:05 UTC. Time now 2017-Apr-26 05:57 UTC.
Position N 40°59' E 028°60'.

Type: Tanker. MMSI: 538001385.

Date/timePositionNaut miles runAvg speedWind from/ knotsBaromVisibWave heightAir tempDewpointWater temp
2017-Apr-25 09:05N 40°59' E 028°60'110.4
2017-Apr-25 09:00N 40°59' E 028°60'6 8.0
2017-Apr-25 08:14N 40°53' E 028°55'2 7.7
2017-Apr-25 08:00N 40°52' E 028°53'3 3.7
2017-Apr-25 07:09N 40°49' E 028°53'0 0.4
2017-Apr-25 07:00N 40°49' E 028°53'0 0.5
2017-Apr-25 06:23N 40°49' E 028°53'0 0.5
2017-Apr-25 05:56N 40°49' E 028°53'1 0.4
2017-Apr-25 02:06N 40°48' E 028°54'0 0.3
2017-Apr-25 02:00N 40°48' E 028°54'0 0.6
2017-Apr-25 01:30N 40°47' E 028°55'0 0.6
2017-Apr-25 00:57N 40°47' E 028°55'1 0.3
2017-Apr-24 23:18N 40°47' E 028°55'0 0.8
2017-Apr-24 23:00N 40°47' E 028°55'0 0.7
2017-Apr-24 22:30N 40°47' E 028°55'0 0.6
2017-Apr-24 21:59N 40°47' E 028°56'0 0.2
2017-Apr-24 21:26N 40°47' E 028°56'1 2.9
2017-Apr-24 21:00N 40°48' E 028°55'  
2017-Apr-20 00:03N 38°00' E 024°42'313.0
2017-Apr-19 23:51N 37°59' E 024°40'412.9
2017-Apr-19 23:31N 37°55' E 024°37'612.9
2017-Apr-19 23:01N 37°49' E 024°35'612.7
2017-Apr-19 22:30N 37°42' E 024°34'612.3
2017-Apr-19 22:00N 37°37' E 024°30'47411.6
2017-Apr-18 05:14N 36°26' E 014°43'612.7
2017-Apr-18 04:47N 36°27' E 014°36'412.6
2017-Apr-18 04:29N 36°28' E 014°32'612.4
2017-Apr-18 04:00N 36°30' E 014°24'712.3
2017-Apr-18 03:26N 36°32' E 014°16'512.5
2017-Apr-18 03:01N 36°34' E 014°10'612.5
2017-Apr-18 02:30N 36°35' E 014°02'612.5
2017-Apr-18 02:01N 36°37' E 013°55'  
2017-Apr-15 18:54N 36°46' E 000°45'713.5
2017-Apr-15 18:25N 36°44' E 000°37'613.4
2017-Apr-15 18:00N 36°43' E 000°30'713.2
2017-Apr-15 17:26N 36°41' E 000°21'1213.2
2017-Apr-15 16:34N 36°39' E 000°07'213.4
2017-Apr-15 16:23N 36°38' E 000°04'513.5
2017-Apr-15 15:58N 36°36' W 000°02'1613.7
2017-Apr-15 14:51N 36°32' W 000°21'513.8
2017-Apr-15 14:30N 36°32' W 000°27'  

Dump ship's entire track history